Terminal Aerodrome Forecast
Issued by NWS

Home | Current Version | Previous Version | Text Only | Print | Product List | Glossary On
Versions: 1 2 3 4 5 6 7 8 9 10 11 12 13 14 15
000
FTUS46 KMTR 241120
TAFOAK
TAF
KOAK 241120Z 2412/2518 15004KT P6SM BKN050
     FM241500 16010KT P6SM BKN050
     FM242300 22015KT 5SM -RA BR OVC030
     FM250100 25012KT 3SM RA BKN025 BKN050
     FM250400 25010KT P6SM -SHRA BKN030
     FM250600 25008KT P6SM VCSH BKN040
     FM251500 12005KT P6SM VCSH BKN040 BKN100=

USA.gov is the U.S. government's official web portal to all federal, state and local government web resources and services.